createdAt,value
2022-08-08T00:01:20.057Z,23.25
2022-08-08T00:03:56.257Z,23.26
2022-08-08T00:06:39.405Z,23.25
2022-08-08T00:09:16.953Z,23.24
2022-08-08T00:12:07.340Z,23.22
2022-08-08T00:14:57.155Z,23.20
2022-08-08T00:18:01.931Z,23.18
2022-08-08T00:20:40.091Z,23.18
2022-08-08T00:23:14.744Z,23.18
2022-08-08T00:25:50.825Z,23.18
2022-08-08T00:28:35.788Z,23.17
2022-08-08T00:32:20.974Z,23.15
2022-08-08T00:34:49.343Z,23.16
2022-08-08T00:37:47.624Z,23.16
2022-08-08T00:41:09.666Z,23.15
2022-08-08T00:44:04.627Z,23.12
2022-08-08T00:47:23.151Z,23.11
2022-08-08T00:50:40.849Z,23.10
2022-08-08T00:53:57.170Z,23.06
2022-08-08T00:57:00.224Z,23.04
2022-08-08T01:00:11.278Z,23.01
2022-08-08T01:04:01.119Z,22.92
2022-08-08T01:06:16.242Z,22.85
2022-08-08T01:09:36.396Z,22.84
2022-08-08T01:13:02.986Z,22.82
2022-08-08T01:15:54.308Z,22.81
2022-08-08T01:18:57.875Z,22.78
2022-08-08T01:22:12.069Z,22.69
2022-08-08T01:24:54.367Z,22.63
2022-08-08T01:28:00.002Z,22.64
2022-08-08T01:31:23.684Z,22.59
2022-08-08T01:34:29.251Z,22.55
2022-08-08T01:37:59.050Z,22.47
2022-08-08T01:40:44.624Z,22.38
2022-08-08T01:43:40.949Z,22.37
2022-08-08T01:46:31.103Z,22.32
2022-08-08T01:49:11.015Z,22.31
2022-08-08T01:52:41.311Z,22.27
2022-08-08T01:55:45.427Z,22.25
2022-08-08T01:58:19.130Z,22.20
2022-08-08T02:01:17.256Z,22.15
2022-08-08T02:04:03.256Z,22.10
2022-08-08T02:06:55.719Z,22.09
2022-08-08T02:10:01.478Z,22.11
2022-08-08T02:12:36.126Z,22.15
2022-08-08T02:15:38.472Z,22.18
2022-08-08T02:18:15.471Z,22.20
2022-08-08T02:21:13.293Z,22.25
2022-08-08T02:23:49.048Z,22.28
2022-08-08T02:26:29.983Z,22.30
2022-08-08T02:29:21.784Z,22.38
2022-08-08T02:32:22.318Z,22.42
2022-08-08T02:35:08.376Z,22.45
2022-08-08T02:38:15.093Z,22.50
2022-08-08T02:42:04.407Z,22.52
2022-08-08T02:44:56.277Z,22.54
2022-08-08T02:48:18.167Z,22.60
2022-08-08T02:51:46.401Z,22.64
2022-08-08T02:54:51.109Z,22.66
2022-08-08T02:57:53.909Z,22.68
2022-08-08T03:01:15.924Z,22.71
2022-08-08T03:05:04.547Z,22.69
2022-08-08T03:07:58.183Z,22.71
2022-08-08T03:11:13.865Z,22.73
2022-08-08T03:16:04.025Z,22.69
2022-08-08T03:17:25.762Z,22.70
2022-08-08T03:20:10.565Z,22.72
2022-08-08T03:22:56.074Z,22.72
2022-08-08T03:25:35.625Z,22.71
2022-08-08T03:28:12.658Z,22.74
2022-08-08T03:30:48.757Z,22.76
2022-08-08T03:33:56.634Z,22.78
2022-08-08T03:36:16.047Z,22.76
2022-08-08T03:38:56.482Z,22.77
2022-08-08T03:42:28.642Z,22.73
2022-08-08T03:44:33.495Z,22.69
2022-08-08T03:47:14.059Z,22.70
2022-08-08T03:50:00.490Z,22.71
2022-08-08T03:52:35.744Z,22.74
2022-08-08T03:55:55.337Z,22.75
2022-08-08T03:58:33.828Z,22.77
2022-08-08T04:01:01.803Z,22.76
2022-08-08T04:03:58.866Z,22.77
2022-08-08T04:06:33.921Z,22.73
2022-08-08T04:09:11.535Z,22.73
2022-08-08T04:11:58.165Z,22.73
2022-08-08T04:14:36.337Z,22.75
2022-08-08T04:17:22.702Z,22.75
2022-08-08T04:19:57.463Z,22.73
2022-08-08T04:22:29.737Z,22.73
2022-08-08T04:25:00.124Z,22.73
2022-08-08T04:28:03.609Z,22.73
2022-08-08T04:30:23.071Z,22.69
2022-08-08T04:32:54.469Z,22.68
2022-08-08T04:35:29.221Z,22.66
2022-08-08T04:37:58.814Z,22.64
2022-08-08T04:40:34.614Z,22.63
2022-08-08T04:43:05.574Z,22.62
2022-08-08T04:45:42.471Z,22.58
2022-08-08T04:48:11.776Z,22.54
2022-08-08T04:50:46.173Z,22.53
2022-08-08T04:54:27.075Z,22.52
2022-08-08T04:56:12.706Z,22.51
2022-08-08T04:58:43.497Z,22.49
2022-08-08T05:01:15.384Z,22.49
2022-08-08T05:04:09.293Z,22.49
2022-08-08T05:06:42.288Z,22.47
2022-08-08T05:09:12.593Z,22.50
2022-08-08T05:11:47.729Z,22.50
2022-08-08T05:14:19.793Z,22.56
2022-08-08T05:17:01.017Z,22.58
2022-08-08T05:20:09.148Z,22.61
2022-08-08T05:22:29.575Z,22.63
2022-08-08T05:24:59.798Z,22.65
2022-08-08T05:27:33.458Z,22.68
2022-08-08T05:30:12.627Z,22.69
2022-08-08T05:32:46.970Z,22.70
2022-08-08T05:35:23.932Z,22.70
2022-08-08T05:38:03.089Z,22.71
2022-08-08T05:40:57.779Z,22.77
2022-08-08T05:43:39.196Z,22.82
2022-08-08T05:46:12.164Z,22.84
2022-08-08T05:48:43.245Z,22.88
2022-08-08T05:51:19.046Z,22.88
2022-08-08T05:54:25.516Z,22.88
2022-08-08T05:56:47.488Z,22.90
2022-08-08T06:00:00.014Z,22.90
2022-08-08T06:02:35.254Z,22.87
2022-08-08T06:05:32.003Z,22.89
2022-08-08T06:08:02.220Z,22.89
2022-08-08T06:10:40.804Z,22.92
2022-08-08T06:13:12.514Z,22.97
2022-08-08T06:15:50.907Z,22.99
2022-08-08T06:18:27.748Z,23.03
2022-08-08T06:20:58.406Z,23.04
2022-08-08T06:24:01.858Z,23.08
2022-08-08T06:26:38.636Z,23.10
2022-08-08T06:29:49.207Z,23.11
2022-08-08T06:32:11.308Z,23.12
2022-08-08T06:35:11.814Z,23.14
2022-08-08T06:37:51.046Z,23.15
2022-08-08T06:40:31.970Z,23.16
2022-08-08T06:43:06.320Z,23.17
2022-08-08T06:45:53.839Z,23.16
2022-08-08T06:48:26.754Z,23.17
2022-08-08T06:51:00.347Z,23.17
2022-08-08T06:53:38.992Z,23.18
2022-08-08T06:56:11.617Z,23.14
2022-08-08T06:58:45.631Z,23.07
2022-08-08T07:02:16.624Z,23.01
2022-08-08T07:04:38.922Z,22.97
2022-08-08T07:07:11.085Z,22.90
2022-08-08T07:10:00.270Z,22.90
2022-08-08T07:12:43.051Z,22.83
2022-08-08T07:15:32.136Z,22.82
2022-08-08T07:18:35.776Z,22.81
2022-08-08T07:21:05.182Z,22.84
2022-08-08T07:24:02.209Z,22.85
2022-08-08T07:26:43.106Z,22.80
2022-08-08T07:29:59.792Z,22.80
2022-08-08T07:32:08.663Z,22.79
2022-08-08T07:34:48.408Z,22.81
2022-08-08T07:37:49.641Z,22.81
2022-08-08T07:40:30.019Z,22.79
2022-08-08T07:43:09.211Z,22.83
2022-08-08T07:46:05.505Z,22.83
2022-08-08T07:48:30.261Z,22.85
2022-08-08T07:51:04.219Z,22.87
2022-08-08T07:54:01.022Z,22.88
2022-08-08T07:56:41.164Z,22.89
2022-08-08T07:59:14.157Z,22.92
2022-08-08T08:02:33.154Z,22.97
2022-08-08T08:04:49.363Z,23.05
2022-08-08T08:07:26.932Z,23.12
2022-08-08T08:10:04.465Z,23.20
2022-08-08T08:12:42.953Z,23.32
2022-08-08T08:15:21.750Z,23.44
2022-08-08T08:17:59.147Z,23.52
2022-08-08T08:20:30.743Z,23.60
2022-08-08T08:23:03.824Z,23.65
2022-08-08T08:25:42.713Z,23.74
2022-08-08T08:28:21.455Z,23.81
2022-08-08T08:30:55.975Z,23.86
2022-08-08T08:33:28.357Z,23.83
2022-08-08T08:36:19.150Z,23.87
2022-08-08T08:38:49.753Z,23.91
2022-08-08T08:41:25.284Z,23.93
2022-08-08T08:44:13.890Z,23.96
2022-08-08T08:46:47.452Z,24.00
2022-08-08T08:49:33.622Z,24.04
2022-08-08T08:52:04.656Z,24.08
2022-08-08T08:54:36.201Z,24.13
2022-08-08T08:57:15.647Z,24.17
2022-08-08T09:00:00.112Z,24.24
2022-08-08T09:02:41.747Z,24.31
2022-08-08T09:05:28.786Z,24.38
2022-08-08T09:08:13.058Z,24.47
2022-08-08T09:10:51.086Z,24.55
2022-08-08T09:13:23.836Z,24.65
2022-08-08T09:16:03.756Z,24.79
2022-08-08T09:18:35.920Z,24.92
2022-08-08T09:21:56.137Z,25.12
2022-08-08T09:23:56.742Z,25.56
2022-08-08T09:26:39.519Z,25.88
2022-08-08T09:29:13.405Z,26.16
2022-08-08T09:31:57.427Z,26.56
2022-08-08T09:34:45.628Z,26.75
2022-08-08T09:37:58.508Z,26.90
2022-08-08T09:40:21.165Z,27.09
2022-08-08T09:42:52.109Z,27.09
2022-08-08T09:46:00.886Z,27.10
2022-08-08T09:48:21.964Z,27.18
2022-08-08T09:50:58.130Z,27.44
2022-08-08T09:53:59.355Z,27.76
2022-08-08T09:56:25.420Z,27.80
2022-08-08T09:59:14.957Z,27.62
2022-08-08T10:01:59.941Z,27.47
2022-08-08T10:04:42.253Z,27.39
2022-08-08T10:07:17.857Z,27.36
2022-08-08T10:10:00.860Z,27.24
2022-08-08T10:12:53.077Z,27.27
2022-08-08T10:15:28.134Z,27.09
2022-08-08T10:18:07.781Z,27.13
2022-08-08T10:20:58.321Z,26.97
2022-08-08T10:23:46.010Z,26.90
2022-08-08T10:26:31.058Z,26.84
2022-08-08T10:29:12.719Z,26.76
2022-08-08T10:32:16.229Z,26.60
2022-08-08T10:34:57.079Z,26.53
2022-08-08T10:37:34.407Z,26.44
2022-08-08T10:40:15.352Z,26.43
2022-08-08T10:42:48.455Z,26.39
2022-08-08T10:45:17.963Z,26.30
2022-08-08T10:47:55.645Z,26.20
2022-08-08T10:50:32.713Z,26.20
2022-08-08T10:53:07.744Z,26.18
2022-08-08T10:55:46.486Z,26.11
2022-08-08T10:58:16.074Z,25.99
2022-08-08T11:00:48.763Z,26.10
2022-08-08T11:04:00.487Z,26.16
2022-08-08T11:06:31.314Z,26.18
2022-08-08T11:09:09.667Z,26.21
2022-08-08T11:12:06.158Z,26.21
2022-08-08T11:14:34.746Z,26.28
2022-08-08T11:17:05.001Z,26.31
2022-08-08T11:19:36.427Z,26.37
2022-08-08T11:22:06.873Z,26.42
2022-08-08T11:24:38.377Z,26.46
2022-08-08T11:27:23.108Z,26.52
2022-08-08T11:30:18.821Z,26.49
2022-08-08T11:32:47.522Z,26.54
2022-08-08T11:35:24.880Z,26.56
2022-08-08T11:38:36.667Z,26.56
2022-08-08T11:40:55.040Z,26.57
2022-08-08T11:43:39.345Z,26.52
2022-08-08T11:46:14.260Z,26.55
2022-08-08T11:48:48.784Z,26.62
2022-08-08T11:51:38.151Z,26.64
2022-08-08T11:54:26.760Z,26.62
2022-08-08T11:57:14.000Z,26.65
2022-08-08T12:00:01.464Z,26.65
2022-08-08T12:02:52.212Z,26.67
2022-08-08T12:05:33.582Z,26.70
2022-08-08T12:08:04.374Z,26.69
2022-08-08T12:10:33.766Z,26.71
2022-08-08T12:13:05.938Z,26.73
2022-08-08T12:15:43.024Z,26.73
2022-08-08T12:18:20.583Z,26.72
2022-08-08T12:20:53.382Z,26.75
2022-08-08T12:23:43.309Z,26.82
2022-08-08T12:26:28.105Z,26.78
2022-08-08T12:29:40.889Z,26.79
2022-08-08T12:32:17.355Z,26.77
2022-08-08T12:35:16.779Z,26.81
2022-08-08T12:38:02.367Z,26.79
2022-08-08T12:40:54.399Z,26.76
2022-08-08T12:43:31.921Z,26.78
2022-08-08T12:46:19.285Z,26.74
2022-08-08T12:49:25.056Z,26.74
2022-08-08T12:51:59.220Z,26.73
2022-08-08T12:54:36.012Z,26.73
2022-08-08T12:57:17.171Z,26.73
2022-08-08T13:00:04.769Z,26.68
2022-08-08T13:02:51.386Z,26.68
2022-08-08T13:05:26.734Z,26.63
2022-08-08T13:08:16.831Z,26.62
2022-08-08T13:10:56.960Z,26.59
2022-08-08T13:13:34.666Z,26.48
2022-08-08T13:16:19.358Z,26.46
2022-08-08T13:18:56.940Z,26.42
2022-08-08T13:21:36.486Z,26.41
2022-08-08T13:24:19.068Z,26.36
2022-08-08T13:27:06.398Z,26.34
2022-08-08T13:29:50.474Z,26.30
2022-08-08T13:32:27.029Z,26.23
2022-08-08T13:34:57.373Z,26.17
2022-08-08T13:37:52.103Z,26.12
2022-08-08T13:40:27.408Z,26.00
2022-08-08T13:42:57.787Z,25.96
2022-08-08T13:45:27.453Z,25.95
2022-08-08T13:48:00.160Z,25.95
2022-08-08T13:50:43.182Z,25.97
2022-08-08T13:53:31.565Z,25.96
2022-08-08T13:56:11.405Z,25.93
2022-08-08T13:58:57.175Z,25.96
2022-08-08T14:01:42.280Z,25.94
2022-08-08T14:04:23.091Z,25.92
2022-08-08T14:07:01.792Z,25.87
2022-08-08T14:10:02.543Z,25.78
2022-08-08T14:12:28.027Z,25.71
2022-08-08T14:14:57.125Z,25.71
2022-08-08T14:17:58.533Z,25.71
2022-08-08T14:20:55.518Z,25.67
2022-08-08T14:23:10.551Z,25.57
2022-08-08T14:25:54.106Z,25.58
2022-08-08T14:28:28.921Z,25.53
2022-08-08T14:31:09.083Z,25.55
2022-08-08T14:33:39.314Z,25.53
2022-08-08T14:36:13.326Z,25.43
2022-08-08T14:38:52.643Z,25.42
2022-08-08T14:41:53.595Z,25.37
2022-08-08T14:44:16.984Z,25.38
2022-08-08T14:47:01.121Z,25.32
2022-08-08T14:49:37.733Z,25.36
2022-08-08T14:52:24.284Z,25.34
2022-08-08T14:54:54.108Z,25.26
2022-08-08T14:58:00.901Z,25.27
2022-08-08T15:00:12.395Z,25.24
2022-08-08T15:03:01.427Z,25.24
2022-08-08T15:05:33.973Z,25.23
2022-08-08T15:08:22.094Z,25.21
2022-08-08T15:10:52.687Z,25.20
2022-08-08T15:13:21.120Z,25.18
2022-08-08T15:16:02.734Z,25.17
2022-08-08T15:18:32.240Z,25.12
2022-08-08T15:21:00.780Z,25.10
2022-08-08T15:23:33.193Z,25.06
2022-08-08T15:26:05.531Z,25.07
2022-08-08T15:28:36.512Z,24.99
2022-08-08T15:31:05.009Z,24.96
2022-08-08T15:33:35.480Z,24.96
2022-08-08T15:36:08.008Z,24.97
2022-08-08T15:38:36.469Z,24.95
2022-08-08T15:41:24.778Z,24.95
2022-08-08T15:44:01.052Z,24.97
2022-08-08T15:46:35.066Z,24.96
2022-08-08T15:49:04.733Z,24.95
2022-08-08T15:51:33.675Z,24.97
2022-08-08T15:54:04.272Z,24.90
2022-08-08T15:56:34.356Z,24.92
2022-08-08T15:59:02.924Z,24.92
2022-08-08T16:01:40.518Z,24.87
2022-08-08T16:04:20.234Z,24.86
2022-08-08T16:06:58.255Z,24.88
2022-08-08T16:13:02.081Z,24.89
2022-08-08T16:13:14.926Z,24.90
2022-08-08T16:15:09.038Z,24.83
2022-08-08T16:18:06.102Z,24.84
2022-08-08T16:20:29.595Z,24.82
2022-08-08T16:22:58.090Z,24.83
2022-08-08T16:25:45.745Z,24.82
2022-08-08T16:28:22.773Z,24.78
2022-08-08T16:31:07.672Z,24.75
2022-08-08T16:33:39.241Z,24.76
2022-08-08T16:36:13.035Z,24.75
2022-08-08T16:38:47.639Z,24.68
2022-08-08T16:41:22.925Z,24.69
2022-08-08T16:43:54.200Z,24.68
2022-08-08T16:46:43.337Z,24.67
2022-08-08T16:49:12.666Z,24.63
2022-08-08T16:55:03.234Z,24.55
2022-08-08T16:55:04.473Z,24.58
2022-08-08T16:57:27.978Z,24.54
2022-08-08T17:00:11.235Z,24.51
2022-08-08T17:02:49.868Z,24.48
2022-08-08T17:05:18.381Z,24.48
2022-08-08T17:07:51.172Z,24.44
2022-08-08T17:10:20.187Z,24.43
2022-08-08T17:12:53.330Z,24.41
2022-08-08T17:15:23.838Z,24.36
2022-08-08T17:18:03.342Z,24.33
2022-08-08T17:20:33.166Z,24.31
2022-08-08T17:23:17.546Z,24.30
2022-08-08T17:25:54.755Z,24.29
2022-08-08T17:28:34.107Z,24.27
2022-08-08T17:31:39.410Z,24.24
2022-08-08T17:34:36.902Z,24.23
2022-08-08T17:36:55.165Z,24.18
2022-08-08T17:40:05.105Z,24.17
2022-08-08T17:42:20.790Z,24.14
2022-08-08T17:44:51.193Z,24.14
2022-08-08T17:47:23.858Z,24.12
2022-08-08T17:50:08.794Z,24.12
2022-08-08T17:52:43.182Z,24.09
2022-08-08T17:56:06.584Z,24.08
2022-08-08T17:58:02.012Z,24.06
2022-08-08T18:00:31.859Z,24.07
2022-08-08T18:03:08.378Z,24.03
2022-08-08T18:05:49.516Z,24.02
2022-08-08T18:08:24.888Z,24.01
2022-08-08T18:11:09.273Z,23.99
2022-08-08T18:13:41.685Z,23.95
2022-08-08T18:16:12.795Z,23.93
2022-08-08T18:18:52.655Z,23.93
2022-08-08T18:21:24.888Z,23.87
2022-08-08T18:24:04.977Z,23.81
2022-08-08T18:26:34.424Z,23.77
2022-08-08T18:29:03.351Z,23.78
2022-08-08T18:31:34.575Z,23.77
2022-08-08T18:34:11.925Z,23.75
2022-08-08T18:36:54.995Z,23.72
2022-08-08T18:39:28.049Z,23.71
2022-08-08T18:42:03.546Z,23.70
2022-08-08T18:44:35.902Z,23.67
2022-08-08T18:47:05.461Z,23.69
2022-08-08T18:49:41.037Z,23.65
2022-08-08T18:52:25.646Z,23.63
2022-08-08T18:54:59.408Z,23.60
2022-08-08T18:57:36.893Z,23.61
2022-08-08T19:00:13.924Z,23.59
2022-08-08T19:02:48.387Z,23.59
2022-08-08T19:05:30.197Z,23.59
2022-08-08T19:08:02.329Z,23.58
2022-08-08T19:10:31.672Z,23.58
2022-08-08T19:13:00.353Z,23.54
2022-08-08T19:15:33.893Z,23.50
2022-08-08T19:18:30.692Z,23.46
2022-08-08T19:20:56.351Z,23.42
2022-08-08T19:23:24.825Z,23.38
2022-08-08T19:26:27.053Z,23.35
2022-08-08T19:28:45.009Z,23.32
2022-08-08T19:31:17.010Z,23.30
2022-08-08T19:34:04.691Z,23.31
2022-08-08T19:36:37.103Z,23.32
2022-08-08T19:39:07.215Z,23.34
2022-08-08T19:41:38.496Z,23.33
2022-08-08T19:44:13.282Z,23.29
2022-08-08T19:46:55.514Z,23.19
2022-08-08T19:49:25.247Z,23.17
2022-08-08T19:51:55.974Z,23.12
2022-08-08T19:54:25.756Z,23.11
2022-08-08T19:56:54.705Z,23.12
2022-08-08T19:59:23.232Z,23.08
2022-08-08T20:02:03.399Z,23.11
2022-08-08T20:04:33.478Z,23.11
2022-08-08T20:08:26.763Z,23.06
2022-08-08T20:09:55.427Z,23.04
2022-08-08T20:12:32.774Z,22.98
2022-08-08T20:15:10.396Z,22.97
2022-08-08T20:17:46.424Z,22.93
2022-08-08T20:20:19.545Z,22.96
2022-08-08T20:22:54.025Z,22.91
2022-08-08T20:25:30.005Z,22.89
2022-08-08T20:28:06.942Z,22.81
2022-08-08T20:30:52.962Z,22.83
2022-08-08T20:35:57.897Z,22.79
2022-08-08T20:38:32.422Z,22.71
2022-08-08T20:41:05.930Z,22.71
2022-08-08T20:43:48.241Z,22.75
2022-08-08T20:46:20.385Z,22.68
2022-08-08T20:48:51.426Z,22.70
2022-08-08T20:51:20.940Z,22.67
2022-08-08T20:54:00.691Z,22.65
2022-08-08T20:56:35.871Z,22.67
2022-08-08T20:59:21.281Z,22.60
2022-08-08T21:02:05.975Z,22.56
2022-08-08T21:04:35.544Z,22.55
2022-08-08T21:07:08.202Z,22.57
2022-08-08T21:09:48.587Z,22.55
2022-08-08T21:12:33.505Z,22.52
2022-08-08T21:15:06.715Z,22.52
2022-08-08T21:17:37.805Z,22.53
2022-08-08T21:20:07.855Z,22.47
2022-08-08T21:22:36.896Z,22.45
2022-08-08T21:25:13.481Z,22.49
2022-08-08T21:28:13.353Z,22.50
2022-08-08T21:30:31.330Z,22.50
2022-08-08T21:32:59.854Z,22.47
2022-08-08T21:36:17.477Z,22.38
2022-08-08T21:38:24.930Z,22.31
2022-08-08T21:40:57.112Z,22.33
2022-08-08T21:43:31.021Z,22.32
2022-08-08T21:48:07.002Z,22.32
2022-08-08T21:48:54.335Z,22.32
2022-08-08T21:54:18.852Z,22.28
2022-08-08T21:54:36.539Z,22.27
2022-08-08T21:57:06.277Z,22.23
2022-08-08T22:00:01.641Z,22.15
2022-08-08T22:02:24.156Z,22.14
2022-08-08T22:04:58.603Z,22.11
2022-08-08T22:07:40.057Z,22.09
2022-08-08T22:10:18.364Z,22.06
2022-08-08T22:13:17.628Z,21.97
2022-08-08T22:15:58.952Z,21.91
2022-08-08T22:18:31.264Z,21.86
2022-08-08T22:21:08.341Z,21.79
2022-08-08T22:23:40.984Z,21.80
2022-08-08T22:26:29.817Z,21.72
2022-08-08T22:29:13.255Z,21.76
2022-08-08T22:32:01.875Z,21.79
2022-08-08T22:34:33.081Z,21.76
2022-08-08T22:37:27.536Z,21.72
2022-08-08T22:40:00.758Z,21.70
2022-08-08T22:42:34.599Z,21.69
2022-08-08T22:45:12.519Z,21.70
2022-08-08T22:47:47.413Z,21.68
2022-08-08T22:50:25.708Z,21.67
2022-08-08T22:54:23.788Z,21.66
2022-08-08T22:55:56.043Z,21.65
2022-08-08T22:58:31.973Z,21.63
2022-08-08T23:02:01.013Z,21.58
2022-08-08T23:03:55.078Z,21.57
2022-08-08T23:06:24.434Z,21.55
2022-08-08T23:08:55.904Z,21.52
2022-08-08T23:12:18.019Z,21.50
2022-08-08T23:14:18.208Z,21.47
2022-08-08T23:16:53.321Z,21.46
2022-08-08T23:19:23.192Z,21.40
2022-08-08T23:21:52.149Z,21.40
2022-08-08T23:24:23.000Z,21.39
2022-08-08T23:26:55.823Z,21.37
2022-08-08T23:29:29.779Z,21.35
2022-08-08T23:32:04.436Z,21.34
2022-08-08T23:34:33.892Z,21.32
2022-08-08T23:37:03.386Z,21.31
2022-08-08T23:39:42.249Z,21.28
2022-08-08T23:42:17.854Z,21.28
2022-08-08T23:44:50.182Z,21.26
2022-08-08T23:49:00.920Z,21.24
2022-08-08T23:50:30.076Z,21.22
2022-08-08T23:53:03.534Z,21.15
2022-08-08T23:55:38.313Z,21.15
2022-08-08T23:58:31.907Z,21.14
